sensor_id;sensor_type;location;lat;lon;timestamp;P1;durP1;ratioP1;P2;durP2;ratioP2
17763;SDS011;22245;52.832;13.816;2024-01-30T00:02:11;14.17;;;6.97;;
17763;SDS011;22245;52.832;13.816;2024-01-30T00:05:33;16.33;;;8.17;;
17763;SDS011;22245;52.832;13.816;2024-01-30T00:08:56;14.93;;;7.10;;
17763;SDS011;22245;52.832;13.816;2024-01-30T00:12:18;14.17;;;6.90;;
17763;SDS011;22245;52.832;13.816;2024-01-30T00:15:39;12.80;;;7.17;;
17763;SDS011;22245;52.832;13.816;2024-01-30T00:19:01;13.93;;;7.67;;
17763;SDS011;22245;52.832;13.816;2024-01-30T00:22:23;13.53;;;7.07;;
17763;SDS011;22245;52.832;13.816;2024-01-30T00:25:46;12.60;;;7.07;;
17763;SDS011;22245;52.832;13.816;2024-01-30T00:29:08;13.00;;;7.57;;
17763;SDS011;22245;52.832;13.816;2024-01-30T00:32:29;17.30;;;7.47;;
17763;SDS011;22245;52.832;13.816;2024-01-30T00:35:50;14.17;;;7.33;;
17763;SDS011;22245;52.832;13.816;2024-01-30T00:39:12;13.27;;;7.40;;
17763;SDS011;22245;52.832;13.816;2024-01-30T00:42:37;14.00;;;7.60;;
17763;SDS011;22245;52.832;13.816;2024-01-30T00:45:59;11.67;;;7.00;;
17763;SDS011;22245;52.832;13.816;2024-01-30T00:49:20;11.07;;;6.63;;
17763;SDS011;22245;52.832;13.816;2024-01-30T00:52:42;15.07;;;7.53;;
17763;SDS011;22245;52.832;13.816;2024-01-30T00:56:05;15.30;;;6.70;;
17763;SDS011;22245;52.832;13.816;2024-01-30T00:59:29;13.93;;;7.10;;
17763;SDS011;22245;52.832;13.816;2024-01-30T01:02:50;15.53;;;7.37;;
17763;SDS011;22245;52.832;13.816;2024-01-30T01:06:12;11.83;;;6.47;;
17763;SDS011;22245;52.832;13.816;2024-01-30T01:09:33;12.70;;;6.30;;
17763;SDS011;22245;52.832;13.816;2024-01-30T01:12:55;14.40;;;6.37;;
17763;SDS011;22245;52.832;13.816;2024-01-30T01:16:19;13.47;;;6.13;;
17763;SDS011;22245;52.832;13.816;2024-01-30T01:19:41;12.17;;;6.70;;
17763;SDS011;22245;52.832;13.816;2024-01-30T01:23:03;12.03;;;6.37;;
17763;SDS011;22245;52.832;13.816;2024-01-30T01:26:25;11.87;;;6.57;;
17763;SDS011;22245;52.832;13.816;2024-01-30T01:29:46;11.60;;;6.60;;
17763;SDS011;22245;52.832;13.816;2024-01-30T01:33:09;14.97;;;6.40;;
17763;SDS011;22245;52.832;13.816;2024-01-30T01:36:34;10.77;;;6.10;;
17763;SDS011;22245;52.832;13.816;2024-01-30T01:39:56;11.33;;;6.23;;
17763;SDS011;22245;52.832;13.816;2024-01-30T01:43:17;13.47;;;5.67;;
17763;SDS011;22245;52.832;13.816;2024-01-30T01:46:39;14.70;;;6.60;;
17763;SDS011;22245;52.832;13.816;2024-01-30T01:50:03;11.07;;;6.47;;
17763;SDS011;22245;52.832;13.816;2024-01-30T01:53:25;12.77;;;6.40;;
17763;SDS011;22245;52.832;13.816;2024-01-30T01:56:48;11.03;;;6.20;;
17763;SDS011;22245;52.832;13.816;2024-01-30T02:00:10;10.37;;;6.00;;
17763;SDS011;22245;52.832;13.816;2024-01-30T02:03:34;13.53;;;5.97;;
17763;SDS011;22245;52.832;13.816;2024-01-30T02:06:57;11.23;;;5.80;;
17763;SDS011;22245;52.832;13.816;2024-01-30T02:10:18;11.40;;;5.67;;
17763;SDS011;22245;52.832;13.816;2024-01-30T02:13:40;12.53;;;5.50;;
17763;SDS011;22245;52.832;13.816;2024-01-30T02:17:02;12.37;;;6.40;;
17763;SDS011;22245;52.832;13.816;2024-01-30T02:20:24;11.83;;;5.13;;
17763;SDS011;22245;52.832;13.816;2024-01-30T02:23:47;9.60;;;5.63;;
17763;SDS011;22245;52.832;13.816;2024-01-30T02:27:10;10.63;;;5.63;;
17763;SDS011;22245;52.832;13.816;2024-01-30T02:30:31;13.70;;;6.13;;
17763;SDS011;22245;52.832;13.816;2024-01-30T02:33:53;14.00;;;6.00;;
17763;SDS011;22245;52.832;13.816;2024-01-30T02:37:14;10.70;;;5.40;;
17763;SDS011;22245;52.832;13.816;2024-01-30T02:40:39;8.63;;;5.27;;
17763;SDS011;22245;52.832;13.816;2024-01-30T02:44:01;10.30;;;5.90;;
17763;SDS011;22245;52.832;13.816;2024-01-30T02:47:23;10.30;;;5.57;;
17763;SDS011;22245;52.832;13.816;2024-01-30T02:50:44;10.80;;;5.53;;
17763;SDS011;22245;52.832;13.816;2024-01-30T02:54:06;13.03;;;6.23;;
17763;SDS011;22245;52.832;13.816;2024-01-30T02:57:30;11.90;;;6.73;;
17763;SDS011;22245;52.832;13.816;2024-01-30T03:00:51;15.37;;;6.90;;
17763;SDS011;22245;52.832;13.816;2024-01-30T03:04:13;13.83;;;6.90;;
17763;SDS011;22245;52.832;13.816;2024-01-30T03:07:34;11.70;;;6.87;;
17763;SDS011;22245;52.832;13.816;2024-01-30T03:10:56;15.07;;;7.30;;
17763;SDS011;22245;52.832;13.816;2024-01-30T03:14:19;16.97;;;6.80;;
17763;SDS011;22245;52.832;13.816;2024-01-30T03:17:41;11.93;;;6.23;;
17763;SDS011;22245;52.832;13.816;2024-01-30T03:21:03;12.47;;;6.80;;
17763;SDS011;22245;52.832;13.816;2024-01-30T03:24:24;15.27;;;6.77;;
17763;SDS011;22245;52.832;13.816;2024-01-30T03:27:46;11.43;;;6.37;;
17763;SDS011;22245;52.832;13.816;2024-01-30T03:31:09;10.60;;;6.03;;
17763;SDS011;22245;52.832;13.816;2024-01-30T03:34:31;11.03;;;6.20;;
17763;SDS011;22245;52.832;13.816;2024-01-30T03:37:52;13.37;;;6.40;;
17763;SDS011;22245;52.832;13.816;2024-01-30T03:41:14;12.67;;;6.37;;
17763;SDS011;22245;52.832;13.816;2024-01-30T03:44:35;10.53;;;6.00;;
17763;SDS011;22245;52.832;13.816;2024-01-30T03:47:58;13.33;;;5.90;;
17763;SDS011;22245;52.832;13.816;2024-01-30T03:51:19;11.47;;;6.20;;
17763;SDS011;22245;52.832;13.816;2024-01-30T03:54:41;12.03;;;6.47;;
17763;SDS011;22245;52.832;13.816;2024-01-30T03:58:03;10.27;;;6.30;;
17763;SDS011;22245;52.832;13.816;2024-01-30T04:01:25;12.07;;;6.73;;
17763;SDS011;22245;52.832;13.816;2024-01-30T04:04:48;14.00;;;6.10;;
17763;SDS011;22245;52.832;13.816;2024-01-30T04:08:11;13.30;;;6.90;;
17763;SDS011;22245;52.832;13.816;2024-01-30T04:11:32;12.57;;;6.27;;
17763;SDS011;22245;52.832;13.816;2024-01-30T04:14:53;12.23;;;6.13;;
17763;SDS011;22245;52.832;13.816;2024-01-30T04:18:15;11.97;;;5.80;;
17763;SDS011;22245;52.832;13.816;2024-01-30T04:21:38;10.73;;;6.50;;
17763;SDS011;22245;52.832;13.816;2024-01-30T04:24:59;13.73;;;7.47;;
17763;SDS011;22245;52.832;13.816;2024-01-30T04:28:21;13.40;;;6.60;;
17763;SDS011;22245;52.832;13.816;2024-01-30T04:31:43;13.43;;;7.07;;
17763;SDS011;22245;52.832;13.816;2024-01-30T04:35:04;17.67;;;7.13;;
17763;SDS011;22245;52.832;13.816;2024-01-30T04:38:32;12.60;;;6.73;;
17763;SDS011;22245;52.832;13.816;2024-01-30T04:41:53;15.77;;;7.47;;
17763;SDS011;22245;52.832;13.816;2024-01-30T04:45:15;12.97;;;6.73;;
17763;SDS011;22245;52.832;13.816;2024-01-30T04:48:36;12.97;;;7.10;;
17763;SDS011;22245;52.832;13.816;2024-01-30T04:51:58;14.00;;;6.83;;
17763;SDS011;22245;52.832;13.816;2024-01-30T04:55:22;14.10;;;6.27;;
17763;SDS011;22245;52.832;13.816;2024-01-30T04:58:43;12.97;;;6.50;;
17763;SDS011;22245;52.832;13.816;2024-01-30T05:02:05;11.83;;;6.67;;
17763;SDS011;22245;52.832;13.816;2024-01-30T05:05:27;12.70;;;5.90;;
17763;SDS011;22245;52.832;13.816;2024-01-30T05:08:48;10.90;;;5.90;;
17763;SDS011;22245;52.832;13.816;2024-01-30T05:12:11;10.80;;;5.97;;
17763;SDS011;22245;52.832;13.816;2024-01-30T05:15:33;11.67;;;6.23;;
17763;SDS011;22245;52.832;13.816;2024-01-30T05:18:54;13.93;;;6.30;;
17763;SDS011;22245;52.832;13.816;2024-01-30T05:22:20;12.63;;;6.10;;
17763;SDS011;22245;52.832;13.816;2024-01-30T05:25:42;12.07;;;6.20;;
17763;SDS011;22245;52.832;13.816;2024-01-30T05:29:04;12.67;;;5.97;;
17763;SDS011;22245;52.832;13.816;2024-01-30T05:32:26;12.03;;;4.90;;
17763;SDS011;22245;52.832;13.816;2024-01-30T05:35:48;11.33;;;5.87;;
17763;SDS011;22245;52.832;13.816;2024-01-30T05:39:09;13.50;;;5.67;;
17763;SDS011;22245;52.832;13.816;2024-01-30T05:42:31;9.50;;;5.70;;
17763;SDS011;22245;52.832;13.816;2024-01-30T05:45:54;13.83;;;5.63;;
17763;SDS011;22245;52.832;13.816;2024-01-30T05:49:16;10.87;;;5.57;;
17763;SDS011;22245;52.832;13.816;2024-01-30T05:52:38;10.93;;;5.50;;
17763;SDS011;22245;52.832;13.816;2024-01-30T05:56:00;10.67;;;5.43;;
17763;SDS011;22245;52.832;13.816;2024-01-30T05:59:22;11.47;;;5.37;;
17763;SDS011;22245;52.832;13.816;2024-01-30T06:02:45;12.23;;;5.93;;
17763;SDS011;22245;52.832;13.816;2024-01-30T06:06:07;14.47;;;6.73;;
17763;SDS011;22245;52.832;13.816;2024-01-30T06:09:29;10.33;;;6.17;;
17763;SDS011;22245;52.832;13.816;2024-01-30T06:12:50;11.17;;;6.43;;
17763;SDS011;22245;52.832;13.816;2024-01-30T06:16:12;10.13;;;6.10;;
17763;SDS011;22245;52.832;13.816;2024-01-30T06:19:35;11.50;;;6.40;;
17763;SDS011;22245;52.832;13.816;2024-01-30T06:22:57;18.27;;;8.53;;
17763;SDS011;22245;52.832;13.816;2024-01-30T06:26:18;14.60;;;8.67;;
17763;SDS011;22245;52.832;13.816;2024-01-30T06:29:39;14.87;;;8.70;;
17763;SDS011;22245;52.832;13.816;2024-01-30T06:33:01;17.73;;;8.30;;
17763;SDS011;22245;52.832;13.816;2024-01-30T06:36:24;11.43;;;6.33;;
17763;SDS011;22245;52.832;13.816;2024-01-30T06:39:46;15.30;;;6.77;;
17763;SDS011;22245;52.832;13.816;2024-01-30T06:43:08;15.00;;;6.67;;
17763;SDS011;22245;52.832;13.816;2024-01-30T06:46:29;14.07;;;6.33;;
17763;SDS011;22245;52.832;13.816;2024-01-30T06:49:52;11.90;;;6.07;;
17763;SDS011;22245;52.832;13.816;2024-01-30T06:53:15;14.63;;;6.33;;
17763;SDS011;22245;52.832;13.816;2024-01-30T06:56:37;11.00;;;6.00;;
17763;SDS011;22245;52.832;13.816;2024-01-30T06:59:59;13.13;;;6.70;;
17763;SDS011;22245;52.832;13.816;2024-01-30T07:03:20;13.47;;;6.90;;
17763;SDS011;22245;52.832;13.816;2024-01-30T07:06:42;15.00;;;6.40;;
17763;SDS011;22245;52.832;13.816;2024-01-30T07:10:06;12.33;;;6.83;;
17763;SDS011;22245;52.832;13.816;2024-01-30T07:13:28;11.07;;;6.60;;
17763;SDS011;22245;52.832;13.816;2024-01-30T07:16:50;14.00;;;7.13;;
17763;SDS011;22245;52.832;13.816;2024-01-30T07:20:11;11.63;;;6.37;;
17763;SDS011;22245;52.832;13.816;2024-01-30T07:23:36;10.80;;;6.27;;
17763;SDS011;22245;52.832;13.816;2024-01-30T07:27:00;12.90;;;6.43;;
17763;SDS011;22245;52.832;13.816;2024-01-30T07:30:22;11.93;;;6.57;;
17763;SDS011;22245;52.832;13.816;2024-01-30T07:33:44;12.47;;;6.87;;
17763;SDS011;22245;52.832;13.816;2024-01-30T07:37:06;18.07;;;7.10;;
17763;SDS011;22245;52.832;13.816;2024-01-30T07:40:28;15.03;;;7.93;;
17763;SDS011;22245;52.832;13.816;2024-01-30T07:43:51;15.33;;;7.27;;
17763;SDS011;22245;52.832;13.816;2024-01-30T07:47:14;14.90;;;8.00;;
17763;SDS011;22245;52.832;13.816;2024-01-30T07:50:36;15.67;;;7.83;;
17763;SDS011;22245;52.832;13.816;2024-01-30T07:53:58;15.03;;;7.10;;
17763;SDS011;22245;52.832;13.816;2024-01-30T07:57:19;16.00;;;7.53;;
17763;SDS011;22245;52.832;13.816;2024-01-30T08:00:42;18.07;;;8.13;;
17763;SDS011;22245;52.832;13.816;2024-01-30T08:04:04;17.37;;;7.80;;
17763;SDS011;22245;52.832;13.816;2024-01-30T08:07:26;18.30;;;8.50;;
17763;SDS011;22245;52.832;13.816;2024-01-30T08:10:49;22.07;;;8.43;;
17763;SDS011;22245;52.832;13.816;2024-01-30T08:14:11;19.70;;;9.30;;
17763;SDS011;22245;52.832;13.816;2024-01-30T08:17:34;15.70;;;8.50;;
17763;SDS011;22245;52.832;13.816;2024-01-30T08:20:56;17.27;;;8.50;;
17763;SDS011;22245;52.832;13.816;2024-01-30T08:24:18;17.30;;;8.87;;
17763;SDS011;22245;52.832;13.816;2024-01-30T08:27:39;20.67;;;9.20;;
17763;SDS011;22245;52.832;13.816;2024-01-30T08:31:02;15.87;;;9.43;;
17763;SDS011;22245;52.832;13.816;2024-01-30T08:34:25;19.00;;;10.37;;
17763;SDS011;22245;52.832;13.816;2024-01-30T08:37:47;17.60;;;9.53;;
17763;SDS011;22245;52.832;13.816;2024-01-30T08:41:08;19.97;;;9.97;;
17763;SDS011;22245;52.832;13.816;2024-01-30T08:44:30;19.53;;;10.40;;
17763;SDS011;22245;52.832;13.816;2024-01-30T08:47:51;21.23;;;10.30;;
17763;SDS011;22245;52.832;13.816;2024-01-30T08:51:15;21.97;;;10.70;;
17763;SDS011;22245;52.832;13.816;2024-01-30T08:54:36;28.10;;;13.50;;
17763;SDS011;22245;52.832;13.816;2024-01-30T08:57:58;22.67;;;11.53;;
17763;SDS011;22245;52.832;13.816;2024-01-30T09:01:20;23.37;;;11.20;;
17763;SDS011;22245;52.832;13.816;2024-01-30T09:04:42;21.43;;;11.77;;
17763;SDS011;22245;52.832;13.816;2024-01-30T09:08:05;22.40;;;11.23;;
17763;SDS011;22245;52.832;13.816;2024-01-30T09:11:27;22.03;;;11.03;;
17763;SDS011;22245;52.832;13.816;2024-01-30T09:14:49;24.93;;;11.50;;
17763;SDS011;22245;52.832;13.816;2024-01-30T09:18:10;20.63;;;11.37;;
17763;SDS011;22245;52.832;13.816;2024-01-30T09:21:32;19.93;;;11.40;;
17763;SDS011;22245;52.832;13.816;2024-01-30T09:24:55;26.23;;;12.03;;
17763;SDS011;22245;52.832;13.816;2024-01-30T09:28:16;24.07;;;12.43;;
17763;SDS011;22245;52.832;13.816;2024-01-30T09:31:38;22.20;;;12.30;;
17763;SDS011;22245;52.832;13.816;2024-01-30T09:35:00;28.03;;;12.37;;
17763;SDS011;22245;52.832;13.816;2024-01-30T09:38:22;21.60;;;11.40;;
17763;SDS011;22245;52.832;13.816;2024-01-30T09:41:49;28.50;;;12.57;;
17763;SDS011;22245;52.832;13.816;2024-01-30T09:45:18;40.60;;;13.27;;
17763;SDS011;22245;52.832;13.816;2024-01-30T09:48:40;25.03;;;11.97;;
17763;SDS011;22245;52.832;13.816;2024-01-30T09:52:02;29.10;;;12.93;;
17763;SDS011;22245;52.832;13.816;2024-01-30T09:55:26;25.20;;;11.30;;
17763;SDS011;22245;52.832;13.816;2024-01-30T09:58:49;21.07;;;11.03;;
17763;SDS011;22245;52.832;13.816;2024-01-30T10:02:11;25.60;;;10.57;;
17763;SDS011;22245;52.832;13.816;2024-01-30T10:05:32;21.60;;;10.13;;
17763;SDS011;22245;52.832;13.816;2024-01-30T10:08:57;19.57;;;10.13;;
17763;SDS011;22245;52.832;13.816;2024-01-30T10:12:19;21.13;;;10.63;;
17763;SDS011;22245;52.832;13.816;2024-01-30T10:15:41;21.17;;;10.77;;
17763;SDS011;22245;52.832;13.816;2024-01-30T10:19:05;14.77;;;9.90;;
17763;SDS011;22245;52.832;13.816;2024-01-30T10:22:27;19.63;;;10.37;;
17763;SDS011;22245;52.832;13.816;2024-01-30T10:25:50;23.20;;;11.63;;
17763;SDS011;22245;52.832;13.816;2024-01-30T10:29:12;25.73;;;12.07;;
17763;SDS011;22245;52.832;13.816;2024-01-30T10:32:35;22.10;;;11.33;;
17763;SDS011;22245;52.832;13.816;2024-01-30T10:35:59;19.77;;;10.73;;
17763;SDS011;22245;52.832;13.816;2024-01-30T10:39:22;18.70;;;10.60;;
17763;SDS011;22245;52.832;13.816;2024-01-30T10:42:45;21.53;;;10.47;;
17763;SDS011;22245;52.832;13.816;2024-01-30T10:46:10;15.43;;;9.57;;
17763;SDS011;22245;52.832;13.816;2024-01-30T10:49:39;17.67;;;9.80;;
17763;SDS011;22245;52.832;13.816;2024-01-30T10:53:02;14.80;;;9.07;;
17763;SDS011;22245;52.832;13.816;2024-01-30T10:56:25;17.07;;;9.23;;
17763;SDS011;22245;52.832;13.816;2024-01-30T10:59:46;13.23;;;8.03;;
17763;SDS011;22245;52.832;13.816;2024-01-30T11:03:09;16.03;;;9.00;;
17763;SDS011;22245;52.832;13.816;2024-01-30T11:06:31;17.70;;;9.63;;
17763;SDS011;22245;52.832;13.816;2024-01-30T11:09:53;17.20;;;8.47;;
17763;SDS011;22245;52.832;13.816;2024-01-30T11:13:22;16.10;;;9.03;;
17763;SDS011;22245;52.832;13.816;2024-01-30T11:16:43;14.37;;;8.43;;
17763;SDS011;22245;52.832;13.816;2024-01-30T11:20:09;14.53;;;7.43;;
17763;SDS011;22245;52.832;13.816;2024-01-30T11:23:34;16.97;;;8.43;;
17763;SDS011;22245;52.832;13.816;2024-01-30T11:26:57;14.90;;;8.60;;
17763;SDS011;22245;52.832;13.816;2024-01-30T11:30:23;14.90;;;8.47;;
17763;SDS011;22245;52.832;13.816;2024-01-30T11:33:46;14.67;;;7.83;;
17763;SDS011;22245;52.832;13.816;2024-01-30T11:37:09;17.53;;;8.27;;
17763;SDS011;22245;52.832;13.816;2024-01-30T11:40:35;14.57;;;8.00;;
17763;SDS011;22245;52.832;13.816;2024-01-30T11:43:58;14.67;;;7.80;;
17763;SDS011;22245;52.832;13.816;2024-01-30T11:47:19;14.57;;;7.93;;
17763;SDS011;22245;52.832;13.816;2024-01-30T11:50:41;16.40;;;7.67;;
17763;SDS011;22245;52.832;13.816;2024-01-30T11:54:04;16.10;;;8.87;;
17763;SDS011;22245;52.832;13.816;2024-01-30T11:57:27;15.07;;;7.90;;
17763;SDS011;22245;52.832;13.816;2024-01-30T12:00:53;16.50;;;8.17;;
17763;SDS011;22245;52.832;13.816;2024-01-30T12:04:17;14.57;;;7.37;;
17763;SDS011;22245;52.832;13.816;2024-01-30T12:07:38;17.17;;;8.73;;
17763;SDS011;22245;52.832;13.816;2024-01-30T12:11:00;17.77;;;7.87;;
17763;SDS011;22245;52.832;13.816;2024-01-30T12:14:26;16.57;;;8.57;;
17763;SDS011;22245;52.832;13.816;2024-01-30T12:17:48;18.40;;;8.40;;
17763;SDS011;22245;52.832;13.816;2024-01-30T12:21:10;16.67;;;8.33;;
17763;SDS011;22245;52.832;13.816;2024-01-30T12:24:32;17.27;;;7.40;;
17763;SDS011;22245;52.832;13.816;2024-01-30T12:27:54;14.03;;;7.47;;
17763;SDS011;22245;52.832;13.816;2024-01-30T12:31:17;14.33;;;7.80;;
17763;SDS011;22245;52.832;13.816;2024-01-30T12:34:40;13.13;;;7.60;;
17763;SDS011;22245;52.832;13.816;2024-01-30T12:38:15;11.80;;;7.57;;
17763;SDS011;22245;52.832;13.816;2024-01-30T12:41:37;11.93;;;7.37;;
17763;SDS011;22245;52.832;13.816;2024-01-30T12:44:59;12.87;;;7.70;;
17763;SDS011;22245;52.832;13.816;2024-01-30T12:48:22;12.67;;;7.13;;
17763;SDS011;22245;52.832;13.816;2024-01-30T12:51:44;13.47;;;7.23;;
17763;SDS011;22245;52.832;13.816;2024-01-30T12:55:06;14.30;;;8.03;;
17763;SDS011;22245;52.832;13.816;2024-01-30T12:58:28;12.00;;;6.83;;
17763;SDS011;22245;52.832;13.816;2024-01-30T13:01:50;13.03;;;7.10;;
17763;SDS011;22245;52.832;13.816;2024-01-30T13:05:13;12.77;;;6.93;;
17763;SDS011;22245;52.832;13.816;2024-01-30T13:08:35;13.13;;;6.67;;
17763;SDS011;22245;52.832;13.816;2024-01-30T13:11:56;18.93;;;7.50;;
17763;SDS011;22245;52.832;13.816;2024-01-30T13:15:18;15.53;;;7.03;;
17763;SDS011;22245;52.832;13.816;2024-01-30T13:18:39;13.57;;;6.97;;
17763;SDS011;22245;52.832;13.816;2024-01-30T13:22:03;15.83;;;6.97;;
17763;SDS011;22245;52.832;13.816;2024-01-30T13:25:24;10.03;;;6.57;;
17763;SDS011;22245;52.832;13.816;2024-01-30T13:28:46;12.97;;;7.07;;
17763;SDS011;22245;52.832;13.816;2024-01-30T13:32:08;16.23;;;7.03;;
17763;SDS011;22245;52.832;13.816;2024-01-30T13:35:30;13.43;;;7.20;;
17763;SDS011;22245;52.832;13.816;2024-01-30T13:38:53;10.70;;;6.60;;
17763;SDS011;22245;52.832;13.816;2024-01-30T13:42:14;11.50;;;6.67;;
17763;SDS011;22245;52.832;13.816;2024-01-30T13:45:37;10.50;;;7.00;;
17763;SDS011;22245;52.832;13.816;2024-01-30T13:49:01;15.53;;;7.50;;
17763;SDS011;22245;52.832;13.816;2024-01-30T13:52:23;13.23;;;6.40;;
17763;SDS011;22245;52.832;13.816;2024-01-30T13:55:53;10.90;;;6.53;;
17763;SDS011;22245;52.832;13.816;2024-01-30T13:59:15;11.80;;;7.00;;
17763;SDS011;22245;52.832;13.816;2024-01-30T14:02:42;10.53;;;6.83;;
17763;SDS011;22245;52.832;13.816;2024-01-30T14:06:04;11.83;;;6.80;;
17763;SDS011;22245;52.832;13.816;2024-01-30T14:09:27;14.27;;;7.20;;
17763;SDS011;22245;52.832;13.816;2024-01-30T14:12:51;13.67;;;6.77;;
17763;SDS011;22245;52.832;13.816;2024-01-30T14:16:13;14.20;;;7.50;;
17763;SDS011;22245;52.832;13.816;2024-01-30T14:19:35;14.03;;;7.17;;
17763;SDS011;22245;52.832;13.816;2024-01-30T14:22:57;14.23;;;7.00;;
17763;SDS011;22245;52.832;13.816;2024-01-30T14:26:19;10.93;;;6.50;;
17763;SDS011;22245;52.832;13.816;2024-01-30T14:29:42;14.67;;;7.10;;
17763;SDS011;22245;52.832;13.816;2024-01-30T14:33:04;13.37;;;6.73;;
17763;SDS011;22245;52.832;13.816;2024-01-30T14:36:27;19.03;;;7.03;;
17763;SDS011;22245;52.832;13.816;2024-01-30T14:39:49;13.30;;;7.63;;
17763;SDS011;22245;52.832;13.816;2024-01-30T14:43:11;12.97;;;7.37;;
17763;SDS011;22245;52.832;13.816;2024-01-30T14:46:35;11.33;;;6.50;;
17763;SDS011;22245;52.832;13.816;2024-01-30T14:49:57;12.17;;;7.10;;
17763;SDS011;22245;52.832;13.816;2024-01-30T14:53:19;10.37;;;6.63;;
17763;SDS011;22245;52.832;13.816;2024-01-30T14:56:40;16.53;;;7.27;;
17763;SDS011;22245;52.832;13.816;2024-01-30T15:00:01;13.07;;;6.50;;
17763;SDS011;22245;52.832;13.816;2024-01-30T15:03:26;9.77;;;6.20;;
17763;SDS011;22245;52.832;13.816;2024-01-30T15:06:49;13.23;;;6.67;;
17763;SDS011;22245;52.832;13.816;2024-01-30T15:10:10;14.00;;;7.30;;
17763;SDS011;22245;52.832;13.816;2024-01-30T15:13:32;13.43;;;7.00;;
17763;SDS011;22245;52.832;13.816;2024-01-30T15:16:54;11.73;;;7.27;;
17763;SDS011;22245;52.832;13.816;2024-01-30T15:20:17;12.30;;;7.00;;
17763;SDS011;22245;52.832;13.816;2024-01-30T15:23:39;14.90;;;7.17;;
17763;SDS011;22245;52.832;13.816;2024-01-30T15:27:02;11.60;;;7.27;;
17763;SDS011;22245;52.832;13.816;2024-01-30T15:30:24;14.87;;;7.13;;
17763;SDS011;22245;52.832;13.816;2024-01-30T15:33:46;28.40;;;8.53;;
17763;SDS011;22245;52.832;13.816;2024-01-30T15:37:10;11.63;;;6.63;;
17763;SDS011;22245;52.832;13.816;2024-01-30T15:40:31;13.10;;;7.57;;
17763;SDS011;22245;52.832;13.816;2024-01-30T15:43:53;12.10;;;7.47;;
17763;SDS011;22245;52.832;13.816;2024-01-30T15:47:15;11.47;;;7.50;;
17763;SDS011;22245;52.832;13.816;2024-01-30T15:50:37;15.40;;;7.83;;
17763;SDS011;22245;52.832;13.816;2024-01-30T15:54:00;15.00;;;7.53;;
17763;SDS011;22245;52.832;13.816;2024-01-30T15:57:21;13.70;;;8.30;;
17763;SDS011;22245;52.832;13.816;2024-01-30T16:00:45;16.20;;;8.57;;
17763;SDS011;22245;52.832;13.816;2024-01-30T16:04:07;15.83;;;9.20;;
17763;SDS011;22245;52.832;13.816;2024-01-30T16:07:29;14.63;;;8.87;;
17763;SDS011;22245;52.832;13.816;2024-01-30T16:10:54;16.43;;;10.00;;
17763;SDS011;22245;52.832;13.816;2024-01-30T16:14:16;20.33;;;9.33;;
17763;SDS011;22245;52.832;13.816;2024-01-30T16:17:37;21.17;;;11.30;;
17763;SDS011;22245;52.832;13.816;2024-01-30T16:21:00;22.73;;;11.53;;
17763;SDS011;22245;52.832;13.816;2024-01-30T16:24:22;17.33;;;10.07;;
17763;SDS011;22245;52.832;13.816;2024-01-30T16:27:45;19.07;;;9.40;;
17763;SDS011;22245;52.832;13.816;2024-01-30T16:31:07;18.20;;;9.83;;
17763;SDS011;22245;52.832;13.816;2024-01-30T16:34:29;14.17;;;8.77;;
17763;SDS011;22245;52.832;13.816;2024-01-30T16:37:51;32.30;;;15.70;;
17763;SDS011;22245;52.832;13.816;2024-01-30T16:41:12;20.47;;;11.27;;
17763;SDS011;22245;52.832;13.816;2024-01-30T16:44:35;15.57;;;9.03;;
17763;SDS011;22245;52.832;13.816;2024-01-30T16:47:57;14.20;;;9.10;;
17763;SDS011;22245;52.832;13.816;2024-01-30T16:51:19;16.27;;;8.90;;
17763;SDS011;22245;52.832;13.816;2024-01-30T16:54:40;13.23;;;8.93;;
17763;SDS011;22245;52.832;13.816;2024-01-30T16:58:02;14.53;;;9.03;;
17763;SDS011;22245;52.832;13.816;2024-01-30T17:01:25;13.77;;;7.47;;
17763;SDS011;22245;52.832;13.816;2024-01-30T17:04:47;12.20;;;7.20;;
17763;SDS011;22245;52.832;13.816;2024-01-30T17:08:09;13.80;;;8.30;;
17763;SDS011;22245;52.832;13.816;2024-01-30T17:11:31;14.60;;;8.03;;
17763;SDS011;22245;52.832;13.816;2024-01-30T17:14:53;12.77;;;7.33;;
17763;SDS011;22245;52.832;13.816;2024-01-30T17:18:16;11.17;;;7.17;;
17763;SDS011;22245;52.832;13.816;2024-01-30T17:21:38;17.13;;;7.30;;
17763;SDS011;22245;52.832;13.816;2024-01-30T17:25:00;13.87;;;8.40;;
17763;SDS011;22245;52.832;13.816;2024-01-30T17:28:21;13.27;;;7.00;;
17763;SDS011;22245;52.832;13.816;2024-01-30T17:31:43;12.30;;;7.67;;
17763;SDS011;22245;52.832;13.816;2024-01-30T17:35:07;15.50;;;7.83;;
17763;SDS011;22245;52.832;13.816;2024-01-30T17:38:30;14.87;;;7.60;;
17763;SDS011;22245;52.832;13.816;2024-01-30T17:41:52;15.23;;;7.97;;
17763;SDS011;22245;52.832;13.816;2024-01-30T17:45:13;14.90;;;7.73;;
17763;SDS011;22245;52.832;13.816;2024-01-30T17:48:34;14.33;;;7.53;;
17763;SDS011;22245;52.832;13.816;2024-01-30T17:51:57;12.67;;;7.87;;
17763;SDS011;22245;52.832;13.816;2024-01-30T17:55:20;14.50;;;8.27;;
17763;SDS011;22245;52.832;13.816;2024-01-30T17:58:41;12.57;;;7.90;;
17763;SDS011;22245;52.832;13.816;2024-01-30T18:02:03;12.47;;;7.90;;
17763;SDS011;22245;52.832;13.816;2024-01-30T18:05:25;12.03;;;7.53;;
17763;SDS011;22245;52.832;13.816;2024-01-30T18:08:48;12.03;;;7.10;;
17763;SDS011;22245;52.832;13.816;2024-01-30T18:12:10;11.93;;;7.27;;
17763;SDS011;22245;52.832;13.816;2024-01-30T18:15:33;14.63;;;8.27;;
17763;SDS011;22245;52.832;13.816;2024-01-30T18:18:55;13.67;;;7.30;;
17763;SDS011;22245;52.832;13.816;2024-01-30T18:22:17;12.93;;;8.13;;
17763;SDS011;22245;52.832;13.816;2024-01-30T18:25:40;12.97;;;7.30;;
17763;SDS011;22245;52.832;13.816;2024-01-30T18:29:02;16.83;;;8.30;;
17763;SDS011;22245;52.832;13.816;2024-01-30T18:32:25;13.97;;;8.07;;
17763;SDS011;22245;52.832;13.816;2024-01-30T18:35:47;25.73;;;12.13;;
17763;SDS011;22245;52.832;13.816;2024-01-30T18:39:09;13.53;;;8.57;;
17763;SDS011;22245;52.832;13.816;2024-01-30T18:42:32;13.27;;;8.33;;
17763;SDS011;22245;52.832;13.816;2024-01-30T18:45:54;14.33;;;8.90;;
17763;SDS011;22245;52.832;13.816;2024-01-30T18:49:16;17.57;;;10.03;;
17763;SDS011;22245;52.832;13.816;2024-01-30T18:52:37;19.70;;;11.83;;
17763;SDS011;22245;52.832;13.816;2024-01-30T18:55:59;15.90;;;10.17;;
17763;SDS011;22245;52.832;13.816;2024-01-30T18:59:22;14.40;;;9.00;;
17763;SDS011;22245;52.832;13.816;2024-01-30T19:02:44;12.57;;;8.30;;
17763;SDS011;22245;52.832;13.816;2024-01-30T19:06:06;14.53;;;9.00;;
17763;SDS011;22245;52.832;13.816;2024-01-30T19:09:28;15.07;;;8.57;;
17763;SDS011;22245;52.832;13.816;2024-01-30T19:12:49;18.17;;;8.83;;
17763;SDS011;22245;52.832;13.816;2024-01-30T19:16:13;14.80;;;9.00;;
17763;SDS011;22245;52.832;13.816;2024-01-30T19:19:36;13.47;;;8.47;;
17763;SDS011;22245;52.832;13.816;2024-01-30T19:22:59;16.00;;;9.47;;
17763;SDS011;22245;52.832;13.816;2024-01-30T19:26:20;15.97;;;8.70;;
17763;SDS011;22245;52.832;13.816;2024-01-30T19:29:42;16.57;;;8.80;;
17763;SDS011;22245;52.832;13.816;2024-01-30T19:33:06;17.00;;;9.43;;
17763;SDS011;22245;52.832;13.816;2024-01-30T19:36:28;16.17;;;8.77;;
17763;SDS011;22245;52.832;13.816;2024-01-30T19:39:50;15.70;;;8.77;;
17763;SDS011;22245;52.832;13.816;2024-01-30T19:43:12;14.70;;;8.57;;